createdAt,value
2019-03-06T00:00:25.996Z,33.24
2019-03-06T00:03:29.531Z,33.24
2019-03-06T00:06:32.980Z,33.24
2019-03-06T00:09:36.725Z,33.23
2019-03-06T00:12:40.185Z,33.23
2019-03-06T00:15:43.793Z,33.23
2019-03-06T00:18:47.391Z,33.23
2019-03-06T00:21:51.917Z,33.25
2019-03-06T00:24:55.528Z,33.24
2019-03-06T00:27:59.113Z,33.25
2019-03-06T00:31:02.848Z,33.26
2019-03-06T00:34:07.417Z,33.24
2019-03-06T00:37:10.853Z,33.24
2019-03-06T00:40:39.318Z,33.20
2019-03-06T00:43:42.875Z,33.20
2019-03-06T00:46:48.392Z,33.18
2019-03-06T00:49:51.899Z,33.19
2019-03-06T00:52:55.381Z,33.17
2019-03-06T00:55:59.018Z,33.17
2019-03-06T00:59:02.657Z,33.18
2019-03-06T01:02:07.121Z,33.15
2019-03-06T01:05:10.723Z,33.18
2019-03-06T01:08:14.572Z,33.16
2019-03-06T01:11:18.036Z,33.16
2019-03-06T01:14:21.546Z,33.14
2019-03-06T01:17:25.039Z,33.17
2019-03-06T01:20:29.565Z,33.14
2019-03-06T01:23:33.157Z,33.16
2019-03-06T01:26:36.813Z,33.14
2019-03-06T01:29:40.682Z,33.17
2019-03-06T01:32:44.964Z,33.17
2019-03-06T01:36:12.629Z,33.16
2019-03-06T01:39:31.167Z,33.14
2019-03-06T01:42:45.373Z,33.15
2019-03-06T01:45:49.005Z,33.15
2019-03-06T01:48:52.477Z,33.13
2019-03-06T01:51:55.983Z,33.13
2019-03-06T01:55:00.520Z,33.16
2019-03-06T01:58:03.993Z,33.13
2019-03-06T02:01:07.612Z,33.13
2019-03-06T02:04:11.207Z,33.12
2019-03-06T02:07:16.215Z,33.14
2019-03-06T02:10:19.841Z,33.12
2019-03-06T02:13:23.695Z,33.11
2019-03-06T02:16:27.264Z,33.13
2019-03-06T02:19:30.790Z,33.13
2019-03-06T02:22:34.262Z,33.13
2019-03-06T02:25:37.847Z,33.13
2019-03-06T02:28:42.293Z,33.12
2019-03-06T02:31:45.812Z,33.12
2019-03-06T02:34:49.291Z,33.12
2019-03-06T02:37:54.847Z,33.13
2019-03-06T02:40:58.362Z,33.10
2019-03-06T02:44:01.829Z,33.12
2019-03-06T02:47:05.341Z,33.13
2019-03-06T02:50:09.947Z,33.10
2019-03-06T02:53:14.823Z,33.13
2019-03-06T02:56:18.426Z,33.11
2019-03-06T02:59:27.279Z,33.12
2019-03-06T03:03:07.929Z,33.12
2019-03-06T03:06:17.549Z,33.12
2019-03-06T03:09:21.071Z,33.11
2019-03-06T03:12:24.559Z,33.12
2019-03-06T03:15:28.150Z,33.12
2019-03-06T03:18:31.763Z,33.12
2019-03-06T03:21:36.274Z,33.09
2019-03-06T03:24:40.812Z,33.12
2019-03-06T03:27:44.312Z,33.11
2019-03-06T03:30:47.915Z,33.08
2019-03-06T03:33:51.545Z,33.12
2019-03-06T03:36:55.021Z,33.13
2019-03-06T03:39:58.458Z,33.12
2019-03-06T03:43:02.430Z,33.09
2019-03-06T03:46:05.945Z,33.10
2019-03-06T03:49:09.507Z,33.11
2019-03-06T03:52:13.134Z,33.12
2019-03-06T03:55:16.679Z,33.08
2019-03-06T03:58:20.159Z,33.09
2019-03-06T04:01:23.640Z,33.11
2019-03-06T04:04:27.175Z,33.10
2019-03-06T04:07:30.651Z,33.10
2019-03-06T04:10:34.134Z,33.09
2019-03-06T04:13:38.663Z,33.09
2019-03-06T04:16:42.179Z,33.09
2019-03-06T04:19:45.667Z,33.11
2019-03-06T04:22:50.198Z,33.10
2019-03-06T04:25:53.687Z,33.09
2019-03-06T04:28:57.204Z,33.08
2019-03-06T04:32:00.709Z,33.09
2019-03-06T04:35:10.348Z,33.08
2019-03-06T04:38:14.876Z,33.08
2019-03-06T04:41:18.354Z,33.09
2019-03-06T04:44:21.793Z,33.10
2019-03-06T04:47:25.369Z,33.09
2019-03-06T04:50:28.899Z,33.07
2019-03-06T04:53:32.386Z,33.08
2019-03-06T04:56:35.869Z,33.11
2019-03-06T04:59:40.399Z,33.09
2019-03-06T05:02:45.935Z,33.07
2019-03-06T05:05:49.429Z,33.09
2019-03-06T05:08:53.056Z,33.07
2019-03-06T05:11:56.538Z,33.08
2019-03-06T05:15:00.228Z,33.07
2019-03-06T05:18:22.909Z,33.08
2019-03-06T05:21:27.444Z,33.05
2019-03-06T05:24:30.931Z,33.08
2019-03-06T05:27:34.417Z,33.06
2019-03-06T05:30:38.130Z,33.06
2019-03-06T05:33:41.632Z,33.08
2019-03-06T05:37:28.969Z,33.05
2019-03-06T05:40:32.419Z,33.06
2019-03-06T05:43:35.985Z,33.06
2019-03-06T05:46:39.472Z,33.05
2019-03-06T05:49:43.595Z,33.05
2019-03-06T05:52:47.096Z,33.05
2019-03-06T05:55:50.615Z,33.04
2019-03-06T05:58:54.102Z,33.04
2019-03-06T06:01:59.647Z,33.04
2019-03-06T06:05:04.653Z,33.08
2019-03-06T06:08:08.299Z,33.06
2019-03-06T06:11:11.964Z,33.04
2019-03-06T06:14:15.470Z,33.06
2019-03-06T06:17:18.977Z,33.06
2019-03-06T06:20:22.470Z,33.08
2019-03-06T06:23:46.040Z,33.04
2019-03-06T06:26:49.649Z,33.05
2019-03-06T06:29:53.277Z,33.06
2019-03-06T06:32:57.881Z,33.05
2019-03-06T06:36:01.547Z,33.04
2019-03-06T06:39:06.283Z,33.07
2019-03-06T06:42:09.932Z,33.07
2019-03-06T06:45:14.482Z,33.07
2019-03-06T06:48:19.924Z,33.08
2019-03-06T06:51:40.720Z,33.07
2019-03-06T06:54:52.116Z,33.08
2019-03-06T06:58:31.417Z,33.08
2019-03-06T07:02:07.771Z,33.08
2019-03-06T07:05:43.410Z,33.08
2019-03-06T07:09:09.036Z,33.09
2019-03-06T07:12:23.853Z,33.10
2019-03-06T07:15:42.722Z,33.08
2019-03-06T07:19:14.561Z,33.09
2019-03-06T07:22:33.041Z,33.08
2019-03-06T07:25:58.935Z,33.10
2019-03-06T07:29:06.865Z,33.09
2019-03-06T07:32:20.378Z,33.09
2019-03-06T07:35:57.895Z,33.09
2019-03-06T07:39:20.932Z,33.09
2019-03-06T07:42:42.525Z,33.09
2019-03-06T07:46:11.561Z,33.08
2019-03-06T07:49:29.001Z,33.08
2019-03-06T07:52:42.715Z,33.09
2019-03-06T07:56:09.071Z,33.09
2019-03-06T07:59:12.875Z,33.08
2019-03-06T08:02:20.206Z,33.08
2019-03-06T08:05:23.874Z,33.07
2019-03-06T08:08:27.377Z,33.10
2019-03-06T08:11:56.294Z,33.07
2019-03-06T08:15:18.916Z,33.10
2019-03-06T08:18:32.927Z,33.06
2019-03-06T08:21:48.853Z,33.15
2019-03-06T08:25:12.133Z,33.58
2019-03-06T08:28:15.764Z,33.75
2019-03-06T08:31:26.565Z,33.79
2019-03-06T08:34:30.097Z,33.84
2019-03-06T08:37:33.738Z,33.78
2019-03-06T08:40:37.286Z,33.83
2019-03-06T08:43:40.914Z,33.91
2019-03-06T08:46:51.595Z,33.89
2019-03-06T08:50:08.651Z,33.83
2019-03-06T08:53:16.365Z,33.82
2019-03-06T08:56:30.584Z,33.86
2019-03-06T08:59:46.373Z,33.84
2019-03-06T09:03:17.802Z,33.80
2019-03-06T09:06:36.046Z,33.83
2019-03-06T09:09:53.266Z,33.78
2019-03-06T09:13:16.734Z,33.78
2019-03-06T09:16:38.139Z,33.76
2019-03-06T09:20:17.632Z,33.79
2019-03-06T09:23:32.060Z,33.79
2019-03-06T09:26:45.399Z,33.73
2019-03-06T09:30:00.873Z,33.78
2019-03-06T09:33:18.817Z,33.77
2019-03-06T09:36:47.185Z,33.75
2019-03-06T09:40:24.972Z,33.77
2019-03-06T09:43:46.345Z,33.72
2019-03-06T09:46:56.165Z,33.69
2019-03-06T09:50:11.749Z,33.68
2019-03-06T09:53:36.141Z,33.73
2019-03-06T09:56:53.774Z,33.78
2019-03-06T10:00:35.463Z,33.69
2019-03-06T10:04:04.153Z,33.75
2019-03-06T10:07:42.029Z,33.78
2019-03-06T10:10:57.509Z,33.67
2019-03-06T10:14:24.128Z,33.69
2019-03-06T10:17:40.713Z,33.69
2019-03-06T10:20:44.286Z,33.70
2019-03-06T10:23:49.009Z,33.54
2019-03-06T10:26:53.050Z,33.44
2019-03-06T10:29:57.100Z,33.38
2019-03-06T10:33:00.563Z,33.30
2019-03-06T10:36:04.328Z,33.22
2019-03-06T10:39:08.019Z,33.13
2019-03-06T10:42:11.507Z,33.08
2019-03-06T10:45:22.142Z,33.06
2019-03-06T10:48:26.043Z,32.99
2019-03-06T10:51:31.117Z,32.98
2019-03-06T10:54:37.902Z,32.94
2019-03-06T10:57:40.202Z,32.95
2019-03-06T11:00:49.924Z,32.93
2019-03-06T11:04:30.958Z,32.90
2019-03-06T11:07:34.923Z,32.85
2019-03-06T11:10:38.485Z,32.83
2019-03-06T11:13:43.063Z,32.76
2019-03-06T11:16:46.796Z,32.75
2019-03-06T11:19:50.634Z,32.77
2019-03-06T11:22:54.357Z,32.70
2019-03-06T11:25:57.827Z,32.63
2019-03-06T11:29:01.381Z,32.60
2019-03-06T11:32:04.949Z,32.59
2019-03-06T11:35:09.873Z,32.53
2019-03-06T11:38:14.506Z,32.52
2019-03-06T11:41:18.259Z,32.49
2019-03-06T11:44:21.733Z,32.45
2019-03-06T11:47:25.204Z,32.43
2019-03-06T11:50:28.721Z,32.39
2019-03-06T11:53:33.267Z,32.38
2019-03-06T11:56:36.735Z,32.38
2019-03-06T11:59:40.473Z,32.36
2019-03-06T12:02:44.045Z,32.37
2019-03-06T12:05:48.721Z,32.31
2019-03-06T12:08:52.255Z,32.35
2019-03-06T12:11:55.953Z,32.32
2019-03-06T12:14:59.658Z,32.34
2019-03-06T12:18:03.364Z,32.32
2019-03-06T12:21:07.109Z,32.26
2019-03-06T12:24:10.807Z,32.29
2019-03-06T12:27:14.373Z,32.26
2019-03-06T12:30:17.977Z,32.25
2019-03-06T12:33:26.011Z,32.28
2019-03-06T12:36:29.710Z,32.35
2019-03-06T12:39:33.568Z,32.66
2019-03-06T12:42:37.174Z,32.79
2019-03-06T12:45:40.848Z,32.77
2019-03-06T12:48:51.338Z,32.88
2019-03-06T12:51:54.953Z,32.84
2019-03-06T12:54:58.597Z,32.84
2019-03-06T12:58:02.134Z,32.84
2019-03-06T13:01:07.224Z,32.84
2019-03-06T13:04:10.740Z,32.88
2019-03-06T13:07:14.256Z,32.88
2019-03-06T13:10:18.274Z,32.94
2019-03-06T13:13:21.930Z,32.92
2019-03-06T13:16:25.611Z,32.92
2019-03-06T13:19:29.109Z,32.96
2019-03-06T13:22:33.569Z,32.89
2019-03-06T13:25:37.156Z,32.91
2019-03-06T13:28:40.859Z,32.85
2019-03-06T13:31:44.289Z,32.83
2019-03-06T13:34:56.002Z,32.81
2019-03-06T13:37:59.502Z,32.79
2019-03-06T13:41:02.998Z,32.74
2019-03-06T13:44:06.488Z,32.72
2019-03-06T13:47:09.994Z,32.76
2019-03-06T13:50:13.498Z,32.78
2019-03-06T13:53:20.530Z,32.75
2019-03-06T13:56:23.375Z,32.69
2019-03-06T13:59:26.933Z,32.68
2019-03-06T14:02:30.374Z,32.53
2019-03-06T14:05:33.994Z,32.43
2019-03-06T14:08:40.953Z,32.42
2019-03-06T14:11:44.623Z,32.57
2019-03-06T14:14:48.103Z,32.67
2019-03-06T14:17:51.659Z,32.49
2019-03-06T14:20:55.263Z,32.39
2019-03-06T14:23:58.885Z,32.29
2019-03-06T14:27:02.468Z,32.21
2019-03-06T14:30:08.162Z,32.19
2019-03-06T14:33:11.736Z,32.75
2019-03-06T14:36:16.270Z,32.97
2019-03-06T14:39:24.986Z,32.92
2019-03-06T14:42:28.586Z,32.95
2019-03-06T14:45:32.513Z,32.89
2019-03-06T14:48:37.033Z,32.92
2019-03-06T14:51:40.518Z,32.89
2019-03-06T14:54:44.234Z,32.85
2019-03-06T14:57:47.946Z,32.83
2019-03-06T15:00:51.531Z,32.79
2019-03-06T15:03:55.547Z,32.75
2019-03-06T15:06:59.038Z,32.70
2019-03-06T15:10:02.548Z,32.69
2019-03-06T15:13:07.069Z,32.71
2019-03-06T15:16:10.580Z,32.73
2019-03-06T15:19:15.220Z,32.65
2019-03-06T15:22:18.813Z,32.67
2019-03-06T15:25:22.422Z,32.72
2019-03-06T15:28:26.112Z,32.65
2019-03-06T15:31:30.764Z,32.63
2019-03-06T15:34:35.266Z,32.53
2019-03-06T15:37:38.771Z,32.48
2019-03-06T15:40:42.290Z,32.36
2019-03-06T15:43:46.775Z,32.51
2019-03-06T15:46:50.242Z,32.61
2019-03-06T15:49:53.793Z,32.57
2019-03-06T15:52:57.291Z,32.62
2019-03-06T15:56:01.837Z,32.63
2019-03-06T15:59:14.423Z,32.63
2019-03-06T16:02:10.683Z,32.68
2019-03-06T16:05:15.795Z,32.68
2019-03-06T16:08:20.330Z,32.72
2019-03-06T16:11:24.044Z,32.70
2019-03-06T16:14:27.541Z,32.59
2019-03-06T16:17:31.051Z,32.54
2019-03-06T16:20:34.863Z,33.08
2019-03-06T16:23:39.477Z,33.15
2019-03-06T16:26:43.090Z,33.20
2019-03-06T16:29:47.603Z,33.13
2019-03-06T16:32:51.301Z,33.13
2019-03-06T16:35:54.913Z,33.13
2019-03-06T16:38:58.502Z,33.13
2019-03-06T16:42:02.110Z,33.16
2019-03-06T16:45:05.781Z,33.16
2019-03-06T16:48:09.356Z,33.13
2019-03-06T16:51:12.839Z,33.16
2019-03-06T16:54:16.315Z,33.09
2019-03-06T16:57:20.992Z,32.92
2019-03-06T17:00:26.218Z,32.82
2019-03-06T17:03:29.697Z,32.75
2019-03-06T17:06:33.460Z,33.15
2019-03-06T17:09:37.098Z,33.18
2019-03-06T17:12:40.607Z,33.17
2019-03-06T17:15:44.186Z,33.21
2019-03-06T17:18:49.044Z,33.16
2019-03-06T17:21:52.550Z,33.16
2019-03-06T17:24:56.061Z,33.16
2019-03-06T17:27:59.959Z,33.19
2019-03-06T17:31:03.504Z,33.26
2019-03-06T17:34:06.965Z,33.20
2019-03-06T17:37:10.684Z,33.18
2019-03-06T17:40:15.190Z,33.19
2019-03-06T17:43:19.728Z,33.20
2019-03-06T17:46:23.225Z,33.19
2019-03-06T17:49:26.713Z,33.16
2019-03-06T17:52:31.365Z,33.15
2019-03-06T17:55:34.951Z,33.12
2019-03-06T17:58:38.628Z,33.10
2019-03-06T18:01:42.157Z,33.13
2019-03-06T18:04:45.873Z,33.12
2019-03-06T18:07:49.375Z,33.08
2019-03-06T18:10:53.913Z,33.07
2019-03-06T18:13:57.370Z,33.04
2019-03-06T18:17:00.882Z,33.07
2019-03-06T18:20:04.582Z,33.11
2019-03-06T18:23:08.116Z,33.12
2019-03-06T18:26:11.627Z,33.07
2019-03-06T18:29:15.098Z,33.12
2019-03-06T18:32:18.588Z,33.11
2019-03-06T18:35:22.099Z,33.13
2019-03-06T18:38:27.270Z,33.12
2019-03-06T18:41:31.819Z,33.17
2019-03-06T18:44:35.251Z,33.26
2019-03-06T18:47:38.776Z,33.22
2019-03-06T18:50:42.287Z,33.23
2019-03-06T18:53:45.775Z,33.23
2019-03-06T18:56:49.340Z,33.23
2019-03-06T18:59:53.071Z,33.20
2019-03-06T19:02:56.828Z,33.19
2019-03-06T19:06:00.379Z,33.18
2019-03-06T19:09:07.511Z,33.15
2019-03-06T19:12:11.067Z,33.12
2019-03-06T19:15:17.237Z,33.09
2019-03-06T19:18:20.737Z,33.08
2019-03-06T19:21:24.259Z,33.04
2019-03-06T19:24:27.739Z,33.12
2019-03-06T19:27:31.238Z,33.15
2019-03-06T19:30:36.780Z,33.06
2019-03-06T19:33:40.281Z,32.93
2019-03-06T19:36:43.781Z,32.85
2019-03-06T19:39:47.287Z,32.98
2019-03-06T19:42:50.918Z,33.10
2019-03-06T19:45:54.527Z,33.08
2019-03-06T19:48:57.967Z,33.12
2019-03-06T19:52:01.467Z,33.11
2019-03-06T19:55:05.278Z,33.16
2019-03-06T19:58:09.024Z,33.12
2019-03-06T20:01:12.629Z,33.14
2019-03-06T20:04:16.186Z,33.13
2019-03-06T20:07:19.825Z,33.12
2019-03-06T20:10:24.346Z,33.08
2019-03-06T20:13:29.028Z,33.09
2019-03-06T20:16:32.604Z,33.06
2019-03-06T20:19:36.188Z,33.15
2019-03-06T20:22:40.822Z,33.18
2019-03-06T20:25:44.305Z,33.15
2019-03-06T20:28:47.821Z,33.16
2019-03-06T20:31:52.363Z,33.18
2019-03-06T20:34:55.856Z,33.15
2019-03-06T20:38:01.686Z,33.11
2019-03-06T20:41:06.135Z,33.08
2019-03-06T20:44:09.728Z,33.08
2019-03-06T20:47:13.397Z,33.11
2019-03-06T20:50:17.896Z,33.12
2019-03-06T20:53:21.346Z,33.04
2019-03-06T20:56:24.954Z,32.88
2019-03-06T20:59:28.579Z,32.82
2019-03-06T21:02:32.117Z,32.78
2019-03-06T21:05:36.077Z,32.76
2019-03-06T21:08:40.717Z,32.72
2019-03-06T21:11:44.193Z,32.71
2019-03-06T21:14:47.691Z,32.67
2019-03-06T21:17:51.220Z,32.66
2019-03-06T21:20:54.708Z,32.65
2019-03-06T21:23:58.200Z,32.64
2019-03-06T21:27:02.734Z,32.63
2019-03-06T21:30:08.768Z,32.63
2019-03-06T21:33:13.214Z,32.60
2019-03-06T21:36:16.740Z,32.60
2019-03-06T21:39:22.137Z,32.59
2019-03-06T21:42:25.832Z,32.61
2019-03-06T21:45:33.656Z,32.61
2019-03-06T21:48:36.675Z,32.56
2019-03-06T21:51:42.202Z,32.60
2019-03-06T21:54:45.703Z,32.58
2019-03-06T21:57:49.285Z,32.53
2019-03-06T22:00:53.027Z,32.57
2019-03-06T22:03:56.611Z,32.57
2019-03-06T22:07:00.113Z,32.53
2019-03-06T22:10:03.827Z,32.56
2019-03-06T22:13:07.305Z,32.54
2019-03-06T22:16:11.831Z,32.54
2019-03-06T22:19:15.436Z,32.55
2019-03-06T22:22:19.295Z,32.53
2019-03-06T22:25:22.831Z,32.54
2019-03-06T22:28:27.282Z,32.52
2019-03-06T22:31:30.787Z,32.52
2019-03-06T22:34:34.215Z,32.53
2019-03-06T22:37:37.782Z,32.54
2019-03-06T22:40:42.307Z,32.54
2019-03-06T22:43:45.948Z,32.54
2019-03-06T22:46:49.506Z,32.51
2019-03-06T22:49:53.159Z,32.52
2019-03-06T22:52:56.732Z,32.53
2019-03-06T22:56:00.192Z,32.53
2019-03-06T22:59:03.736Z,32.52
2019-03-06T23:02:07.472Z,32.49
2019-03-06T23:05:10.891Z,32.48
2019-03-06T23:08:14.669Z,32.50
2019-03-06T23:11:18.180Z,32.50
2019-03-06T23:14:21.886Z,32.52
2019-03-06T23:17:25.759Z,32.52
2019-03-06T23:20:30.293Z,32.49
2019-03-06T23:23:34.819Z,32.51
2019-03-06T23:26:42.656Z,32.51
2019-03-06T23:29:43.681Z,32.50
2019-03-06T23:32:47.156Z,32.50
2019-03-06T23:35:50.751Z,32.50
2019-03-06T23:38:54.353Z,32.50
2019-03-06T23:41:58.884Z,32.49
2019-03-06T23:45:03.422Z,32.46
2019-03-06T23:48:06.905Z,32.51
2019-03-06T23:51:16.598Z,32.46
2019-03-06T23:54:20.105Z,32.46
2019-03-06T23:57:23.974Z,32.47
